sensor_id;sensor_type;location;lat;lon;timestamp;pressure;altitude;pressure_sealevel;temperature;humidity
44349;BME280;30068;50.986;4.564;2023-02-22T00:01:23;101547.09;;;20.59;53.43
44349;BME280;30068;50.986;4.564;2023-02-22T00:04:02;101549.13;;;20.57;53.35
44349;BME280;30068;50.986;4.564;2023-02-22T00:06:28;101552.00;;;20.56;53.38
44349;BME280;30068;50.986;4.564;2023-02-22T00:08:55;101548.63;;;20.54;53.35
44349;BME280;30068;50.986;4.564;2023-02-22T00:11:20;101551.50;;;20.52;53.42
44349;BME280;30068;50.986;4.564;2023-02-22T00:13:45;101549.81;;;20.51;53.67
44349;BME280;30068;50.986;4.564;2023-02-22T00:16:15;101547.28;;;20.49;53.78
44349;BME280;30068;50.986;4.564;2023-02-22T00:18:41;101550.16;;;20.48;53.68
44349;BME280;30068;50.986;4.564;2023-02-22T00:21:08;101556.63;;;20.47;53.68
44349;BME280;30068;50.986;4.564;2023-02-22T00:23:34;101555.94;;;20.45;53.49
44349;BME280;30068;50.986;4.564;2023-02-22T00:26:03;101544.56;;;20.41;53.70
44349;BME280;30068;50.986;4.564;2023-02-22T00:28:29;101542.88;;;20.40;53.88
44349;BME280;30068;50.986;4.564;2023-02-22T00:30:54;101551.19;;;20.39;53.90
44349;BME280;30068;50.986;4.564;2023-02-22T00:33:20;101544.94;;;20.38;53.77
44349;BME280;30068;50.986;4.564;2023-02-22T00:35:45;101546.97;;;20.36;53.60
44349;BME280;30068;50.986;4.564;2023-02-22T00:38:11;101539.00;;;20.35;53.86
44349;BME280;30068;50.986;4.564;2023-02-22T00:40:36;101536.47;;;20.33;53.91
44349;BME280;30068;50.986;4.564;2023-02-22T00:43:03;101533.91;;;20.32;53.89
44349;BME280;30068;50.986;4.564;2023-02-22T00:45:29;101538.47;;;20.31;53.78
44349;BME280;30068;50.986;4.564;2023-02-22T00:47:55;101538.63;;;20.30;54.03
44349;BME280;30068;50.986;4.564;2023-02-22T00:50:21;101539.66;;;20.29;54.22
44349;BME280;30068;50.986;4.564;2023-02-22T00:52:47;101535.25;;;20.28;53.91
44349;BME280;30068;50.986;4.564;2023-02-22T00:55:17;101530.84;;;20.27;54.06
44349;BME280;30068;50.986;4.564;2023-02-22T00:57:42;101525.63;;;20.25;53.97
44349;BME280;30068;50.986;4.564;2023-02-22T01:00:08;101518.66;;;20.23;54.25
44349;BME280;30068;50.986;4.564;2023-02-22T01:02:37;101514.09;;;20.23;53.89
44349;BME280;30068;50.986;4.564;2023-02-22T01:05:03;101515.28;;;20.21;54.28
44349;BME280;30068;50.986;4.564;2023-02-22T01:07:29;101510.91;;;20.20;53.88
44349;BME280;30068;50.986;4.564;2023-02-22T01:09:55;101513.41;;;20.21;54.22
44349;BME280;30068;50.986;4.564;2023-02-22T01:12:20;101507.34;;;20.19;54.15
44349;BME280;30068;50.986;4.564;2023-02-22T01:14:46;101498.53;;;20.17;54.61
44349;BME280;30068;50.986;4.564;2023-02-22T01:17:12;101497.69;;;20.17;54.23
44349;BME280;30068;50.986;4.564;2023-02-22T01:19:37;101495.13;;;20.15;54.41
44349;BME280;30068;50.986;4.564;2023-02-22T01:22:06;101500.72;;;20.13;54.34
44349;BME280;30068;50.986;4.564;2023-02-22T01:24:31;101499.06;;;20.13;54.11
44349;BME280;30068;50.986;4.564;2023-02-22T01:26:56;101490.91;;;20.13;54.39
44349;BME280;30068;50.986;4.564;2023-02-22T01:29:22;101492.94;;;20.10;54.34
44349;BME280;30068;50.986;4.564;2023-02-22T01:31:51;101492.94;;;20.10;54.05
44349;BME280;30068;50.986;4.564;2023-02-22T01:34:18;101484.97;;;20.09;54.51
44349;BME280;30068;50.986;4.564;2023-02-22T01:36:45;101486.84;;;20.08;54.15
44349;BME280;30068;50.986;4.564;2023-02-22T01:39:10;101482.44;;;20.07;54.15
44349;BME280;30068;50.986;4.564;2023-02-22T01:41:35;101481.59;;;20.07;54.13
44349;BME280;30068;50.986;4.564;2023-02-22T01:46:45;101478.22;;;20.05;54.36
44349;BME280;30068;50.986;4.564;2023-02-22T01:49:10;101470.28;;;20.03;54.57
44349;BME280;30068;50.986;4.564;2023-02-22T01:51:37;101475.84;;;20.02;54.28
44349;BME280;30068;50.986;4.564;2023-02-22T01:54:05;101466.88;;;20.01;54.33
44349;BME280;30068;50.986;4.564;2023-02-22T01:56:33;101465.19;;;20.00;54.27
44349;BME280;30068;50.986;4.564;2023-02-22T01:59:01;101468.75;;;20.01;54.40
44349;BME280;30068;50.986;4.564;2023-02-22T02:01:27;101467.25;;;19.98;54.61
44349;BME280;30068;50.986;4.564;2023-02-22T02:03:56;101459.97;;;19.99;54.25
44349;BME280;30068;50.986;4.564;2023-02-22T02:06:23;101460.97;;;19.98;54.62
44349;BME280;30068;50.986;4.564;2023-02-22T02:08:56;101460.13;;;19.97;54.22
44349;BME280;30068;50.986;4.564;2023-02-22T02:11:24;101448.59;;;19.95;54.29
44349;BME280;30068;50.986;4.564;2023-02-22T02:13:50;101449.63;;;19.94;54.28
44349;BME280;30068;50.986;4.564;2023-02-22T02:16:18;101444.19;;;19.94;54.55
44349;BME280;30068;50.986;4.564;2023-02-22T02:18:45;101447.91;;;19.93;54.48
44349;BME280;30068;50.986;4.564;2023-02-22T02:34:34;101422.38;;;19.88;54.60
44349;BME280;30068;50.986;4.564;2023-02-22T02:37:10;101418.81;;;19.87;54.48
44349;BME280;30068;50.986;4.564;2023-02-22T02:42:24;101406.50;;;19.85;54.87
44349;BME280;30068;50.986;4.564;2023-02-22T02:44:54;101415.47;;;19.85;54.59
44349;BME280;30068;50.986;4.564;2023-02-22T02:47:24;101409.38;;;19.83;54.37
44349;BME280;30068;50.986;4.564;2023-02-22T02:52:19;101401.41;;;19.82;55.05
44349;BME280;30068;50.986;4.564;2023-02-22T02:54:46;101398.84;;;19.80;54.79
44349;BME280;30068;50.986;4.564;2023-02-22T02:57:12;101395.31;;;19.80;54.68
44349;BME280;30068;50.986;4.564;2023-02-22T02:59:37;101388.88;;;19.81;54.76
44349;BME280;30068;50.986;4.564;2023-02-22T03:21:00;101373.69;;;19.71;54.75
44349;BME280;30068;50.986;4.564;2023-02-22T03:26:12;101360.31;;;19.70;54.57
44349;BME280;30068;50.986;4.564;2023-02-22T03:28:39;101363.00;;;19.70;54.92
44349;BME280;30068;50.986;4.564;2023-02-22T03:31:09;101357.75;;;19.68;54.52
44349;BME280;30068;50.986;4.564;2023-02-22T03:33:36;101356.91;;;19.68;54.82
44349;BME280;30068;50.986;4.564;2023-02-22T03:36:11;101361.50;;;19.67;54.58
44349;BME280;30068;50.986;4.564;2023-02-22T03:38:37;101358.94;;;19.66;54.63
44349;BME280;30068;50.986;4.564;2023-02-22T03:41:04;101349.81;;;19.67;54.68
44349;BME280;30068;50.986;4.564;2023-02-22T03:43:33;101352.69;;;19.65;54.65
44349;BME280;30068;50.986;4.564;2023-02-22T03:46:00;101349.31;;;19.63;54.51
44349;BME280;30068;50.986;4.564;2023-02-22T03:50:56;101339.50;;;19.62;54.73
44349;BME280;30068;50.986;4.564;2023-02-22T03:53:22;101339.66;;;19.61;54.46
44349;BME280;30068;50.986;4.564;2023-02-22T03:55:48;101340.69;;;19.60;54.51
44349;BME280;30068;50.986;4.564;2023-02-22T03:58:17;101327.31;;;19.58;54.42
44349;BME280;30068;50.986;4.564;2023-02-22T04:00:44;101331.91;;;19.58;54.53
44349;BME280;30068;50.986;4.564;2023-02-22T04:03:10;101330.91;;;19.51;54.61
44349;BME280;30068;50.986;4.564;2023-02-22T04:05:35;101324.09;;;19.39;54.55
44349;BME280;30068;50.986;4.564;2023-02-22T04:08:00;101323.63;;;19.27;54.99
44349;BME280;30068;50.986;4.564;2023-02-22T04:10:26;101325.69;;;19.17;55.35
44349;BME280;30068;50.986;4.564;2023-02-22T04:12:51;101325.50;;;19.10;55.30
44349;BME280;30068;50.986;4.564;2023-02-22T04:15:18;101318.06;;;19.12;55.40
44349;BME280;30068;50.986;4.564;2023-02-22T04:17:44;101318.22;;;19.19;55.71
44349;BME280;30068;50.986;4.564;2023-02-22T04:20:09;101318.75;;;19.22;55.68
44349;BME280;30068;50.986;4.564;2023-02-22T04:22:35;101315.50;;;19.27;55.34
44349;BME280;30068;50.986;4.564;2023-02-22T04:25:00;101312.63;;;19.28;55.58
44349;BME280;30068;50.986;4.564;2023-02-22T04:27:26;101314.16;;;19.31;55.39
44349;BME280;30068;50.986;4.564;2023-02-22T04:29:51;101312.28;;;19.31;55.54
44349;BME280;30068;50.986;4.564;2023-02-22T04:32:17;101303.84;;;19.34;55.50
44349;BME280;30068;50.986;4.564;2023-02-22T04:34:42;101300.78;;;19.38;55.62
44349;BME280;30068;50.986;4.564;2023-02-22T04:37:07;101303.81;;;19.43;55.40
44349;BME280;30068;50.986;4.564;2023-02-22T04:39:34;101297.88;;;19.39;55.87
44349;BME280;30068;50.986;4.564;2023-02-22T04:41:59;101297.41;;;19.36;55.78
44349;BME280;30068;50.986;4.564;2023-02-22T04:44:24;101296.41;;;19.37;55.54
44349;BME280;30068;50.986;4.564;2023-02-22T04:46:49;101293.00;;;19.43;55.48
44349;BME280;30068;50.986;4.564;2023-02-22T04:49:15;101292.63;;;19.46;55.50
44349;BME280;30068;50.986;4.564;2023-02-22T04:51:40;101283.19;;;19.50;55.61
44349;BME280;30068;50.986;4.564;2023-02-22T04:54:06;101287.59;;;19.43;55.50
44349;BME280;30068;50.986;4.564;2023-02-22T04:56:32;101284.56;;;19.38;55.52
44349;BME280;30068;50.986;4.564;2023-02-22T04:58:57;101278.44;;;19.44;55.50
44349;BME280;30068;50.986;4.564;2023-02-22T05:01:22;101272.38;;;19.50;55.44
44349;BME280;30068;50.986;4.564;2023-02-22T05:03:47;101262.88;;;19.54;55.26
44349;BME280;30068;50.986;4.564;2023-02-22T05:06:12;101258.81;;;19.58;55.13
44349;BME280;30068;50.986;4.564;2023-02-22T05:08:38;101255.75;;;19.61;55.09
44349;BME280;30068;50.986;4.564;2023-02-22T05:11:03;101259.81;;;19.65;55.21
44349;BME280;30068;50.986;4.564;2023-02-22T05:13:29;101256.75;;;19.60;55.34
44349;BME280;30068;50.986;4.564;2023-02-22T05:15:54;101260.00;;;19.55;55.16
44349;BME280;30068;50.986;4.564;2023-02-22T05:18:19;101265.91;;;19.59;54.85
44349;BME280;30068;50.986;4.564;2023-02-22T05:20:45;101259.13;;;19.63;55.07
44349;BME280;30068;50.986;4.564;2023-02-22T05:23:10;101259.81;;;19.65;54.86
44349;BME280;30068;50.986;4.564;2023-02-22T05:25:35;101256.06;;;19.66;55.21
44349;BME280;30068;50.986;4.564;2023-02-22T05:28:07;101255.88;;;19.67;55.00
44349;BME280;30068;50.986;4.564;2023-02-22T05:30:33;101249.94;;;19.72;55.11
44349;BME280;30068;50.986;4.564;2023-02-22T05:32:59;101248.91;;;19.73;54.61
44349;BME280;30068;50.986;4.564;2023-02-22T05:35:24;101243.03;;;19.69;55.20
44349;BME280;30068;50.986;4.564;2023-02-22T05:37:50;101236.47;;;19.64;55.15
44349;BME280;30068;50.986;4.564;2023-02-22T05:40:19;101231.03;;;19.64;54.84
44349;BME280;30068;50.986;4.564;2023-02-22T05:42:45;101240.50;;;19.68;54.95
44349;BME280;30068;50.986;4.564;2023-02-22T05:45:14;101226.63;;;19.71;54.77
44349;BME280;30068;50.986;4.564;2023-02-22T05:47:40;101224.56;;;19.73;54.98
44349;BME280;30068;50.986;4.564;2023-02-22T05:50:06;101227.94;;;19.75;54.95
44349;BME280;30068;50.986;4.564;2023-02-22T05:52:31;101235.72;;;19.78;54.75
44349;BME280;30068;50.986;4.564;2023-02-22T05:54:56;101237.22;;;19.81;54.79
44349;BME280;30068;50.986;4.564;2023-02-22T05:57:22;101240.94;;;19.80;54.78
44349;BME280;30068;50.986;4.564;2023-02-22T05:59:47;101230.97;;;19.72;55.10
44349;BME280;30068;50.986;4.564;2023-02-22T06:02:12;101233.38;;;19.67;55.06
44349;BME280;30068;50.986;4.564;2023-02-22T06:04:37;101234.06;;;19.69;54.61
44349;BME280;30068;50.986;4.564;2023-02-22T06:07:03;101225.56;;;19.72;54.91
44349;BME280;30068;50.986;4.564;2023-02-22T06:09:28;101224.56;;;19.73;54.76
44349;BME280;30068;50.986;4.564;2023-02-22T06:11:53;101218.78;;;19.76;54.66
44349;BME280;30068;50.986;4.564;2023-02-22T06:14:19;101217.63;;;19.79;54.93
44349;BME280;30068;50.986;4.564;2023-02-22T06:16:50;101210.97;;;19.81;54.67
44349;BME280;30068;50.986;4.564;2023-02-22T06:19:15;101215.22;;;19.84;54.57
44349;BME280;30068;50.986;4.564;2023-02-22T06:21:47;101227.91;;;19.83;54.54
44349;BME280;30068;50.986;4.564;2023-02-22T06:24:12;101219.81;;;19.75;54.80
44349;BME280;30068;50.986;4.564;2023-02-22T06:26:37;101212.03;;;19.72;54.60
44349;BME280;30068;50.986;4.564;2023-02-22T06:29:02;101191.72;;;19.76;54.90
44349;BME280;30068;50.986;4.564;2023-02-22T06:31:29;101199.31;;;19.81;54.63
44349;BME280;30068;50.986;4.564;2023-02-22T06:33:55;101194.72;;;19.81;54.62
44349;BME280;30068;50.986;4.564;2023-02-22T06:36:20;101203.53;;;19.83;54.54
44349;BME280;30068;50.986;4.564;2023-02-22T06:38:46;101196.06;;;19.85;54.56
44349;BME280;30068;50.986;4.564;2023-02-22T06:41:11;101201.50;;;19.85;54.90
44349;BME280;30068;50.986;4.564;2023-02-22T06:43:36;101204.00;;;19.87;54.90
44349;BME280;30068;50.986;4.564;2023-02-22T06:46:01;101208.22;;;19.89;54.39
44349;BME280;30068;50.986;4.564;2023-02-22T06:48:26;101200.16;;;19.81;54.60
44349;BME280;30068;50.986;4.564;2023-02-22T06:50:52;101194.44;;;19.76;54.51
44349;BME280;30068;50.986;4.564;2023-02-22T06:53:17;101191.53;;;19.78;54.26
44349;BME280;30068;50.986;4.564;2023-02-22T06:55:42;101195.75;;;19.80;54.42
44349;BME280;30068;50.986;4.564;2023-02-22T06:58:07;101202.50;;;19.84;54.65
44349;BME280;30068;50.986;4.564;2023-02-22T07:00:33;101188.59;;;19.87;54.67
44349;BME280;30068;50.986;4.564;2023-02-22T07:02:58;101202.81;;;19.89;54.45
44349;BME280;30068;50.986;4.564;2023-02-22T07:05:24;101217.03;;;19.91;54.33
44349;BME280;30068;50.986;4.564;2023-02-22T07:07:50;101224.97;;;19.93;54.20
44349;BME280;30068;50.986;4.564;2023-02-22T07:10:26;101221.22;;;19.94;54.25
44349;BME280;30068;50.986;4.564;2023-02-22T07:12:52;101218.00;;;19.98;54.18
44349;BME280;30068;50.986;4.564;2023-02-22T07:15:18;101223.44;;;19.98;54.08
44349;BME280;30068;50.986;4.564;2023-02-22T07:17:45;101216.78;;;20.01;54.40
44349;BME280;30068;50.986;4.564;2023-02-22T07:20:10;101218.66;;;20.00;54.20
44349;BME280;30068;50.986;4.564;2023-02-22T07:22:36;101215.47;;;19.97;54.05
44349;BME280;30068;50.986;4.564;2023-02-22T07:25:02;101208.84;;;19.99;54.15
44349;BME280;30068;50.986;4.564;2023-02-22T07:27:27;101210.53;;;20.00;54.03
44349;BME280;30068;50.986;4.564;2023-02-22T07:29:52;101208.50;;;20.02;54.02
44349;BME280;30068;50.986;4.564;2023-02-22T07:32:18;101212.72;;;20.05;53.90
44349;BME280;30068;50.986;4.564;2023-02-22T07:34:43;101197.34;;;19.97;53.95
44349;BME280;30068;50.986;4.564;2023-02-22T07:37:08;101189.75;;;19.93;53.90
44349;BME280;30068;50.986;4.564;2023-02-22T07:39:33;101186.22;;;19.92;54.18
44349;BME280;30068;50.986;4.564;2023-02-22T07:41:59;101193.13;;;19.95;53.71
44349;BME280;30068;50.986;4.564;2023-02-22T07:44:24;101196.69;;;19.95;53.88
44349;BME280;30068;50.986;4.564;2023-02-22T07:46:50;101195.66;;;19.96;53.94
44349;BME280;30068;50.986;4.564;2023-02-22T07:49:15;101207.34;;;19.97;53.79
44349;BME280;30068;50.986;4.564;2023-02-22T07:51:40;101197.34;;;19.97;54.14
44349;BME280;30068;50.986;4.564;2023-02-22T07:54:06;101194.28;;;20.00;54.25
44349;BME280;30068;50.986;4.564;2023-02-22T07:56:31;101198.38;;;19.96;54.06
44349;BME280;30068;50.986;4.564;2023-02-22T07:58:56;101197.06;;;19.92;54.14
44349;BME280;30068;50.986;4.564;2023-02-22T08:01:21;101196.72;;;19.87;53.88
44349;BME280;30068;50.986;4.564;2023-02-22T08:03:48;101198.06;;;19.91;53.99
44349;BME280;30068;50.986;4.564;2023-02-22T08:06:13;101195.84;;;19.95;54.12
44349;BME280;30068;50.986;4.564;2023-02-22T08:08:38;101186.69;;;19.96;53.91
44349;BME280;30068;50.986;4.564;2023-02-22T08:11:04;101186.34;;;19.99;54.21
44349;BME280;30068;50.986;4.564;2023-02-22T08:13:29;101188.84;;;20.00;53.90
44349;BME280;30068;50.986;4.564;2023-02-22T08:15:55;101186.81;;;20.02;53.91
44349;BME280;30068;50.986;4.564;2023-02-22T08:18:23;101194.78;;;20.04;53.70
44349;BME280;30068;50.986;4.564;2023-02-22T08:20:49;101190.91;;;19.98;54.12
44349;BME280;30068;50.986;4.564;2023-02-22T08:23:15;101190.41;;;19.95;53.95
44349;BME280;30068;50.986;4.564;2023-02-22T08:25:41;101184.16;;;19.94;53.96
44349;BME280;30068;50.986;4.564;2023-02-22T08:28:08;101180.09;;;19.98;53.87
44349;BME280;30068;50.986;4.564;2023-02-22T08:30:34;101186.81;;;20.02;53.79
44349;BME280;30068;50.986;4.564;2023-02-22T08:33:00;101183.94;;;20.04;54.01
44349;BME280;30068;50.986;4.564;2023-02-22T08:35:29;101184.78;;;20.04;53.87
44349;BME280;30068;50.986;4.564;2023-02-22T08:37:56;101181.06;;;20.05;54.01
44349;BME280;30068;50.986;4.564;2023-02-22T08:40:23;101184.41;;;20.07;53.85
44349;BME280;30068;50.986;4.564;2023-02-22T08:42:49;101175.94;;;20.10;53.93
44349;BME280;30068;50.986;4.564;2023-02-22T08:45:14;101185.38;;;20.15;54.01
44349;BME280;30068;50.986;4.564;2023-02-22T08:47:40;101178.94;;;20.16;53.95
44349;BME280;30068;50.986;4.564;2023-02-22T08:50:05;101180.13;;;20.13;53.73
44349;BME280;30068;50.986;4.564;2023-02-22T08:52:32;101176.28;;;20.07;53.79
44349;BME280;30068;50.986;4.564;2023-02-22T08:54:57;101173.09;;;20.04;53.99
44349;BME280;30068;50.986;4.564;2023-02-22T08:57:22;101177.81;;;20.10;53.43
44349;BME280;30068;50.986;4.564;2023-02-22T08:59:48;101182.84;;;20.13;53.74
44349;BME280;30068;50.986;4.564;2023-02-22T09:02:18;101183.88;;;20.12;53.91
44349;BME280;30068;50.986;4.564;2023-02-22T09:04:44;101186.22;;;20.15;53.70
44349;BME280;30068;50.986;4.564;2023-02-22T09:07:10;101180.63;;;20.17;53.84
44349;BME280;30068;50.986;4.564;2023-02-22T09:09:35;101184.00;;;20.19;53.90
44349;BME280;30068;50.986;4.564;2023-02-22T09:12:01;101177.38;;;20.21;53.85
44349;BME280;30068;50.986;4.564;2023-02-22T09:14:26;101180.56;;;20.25;53.86
44349;BME280;30068;50.986;4.564;2023-02-22T09:16:51;101176.84;;;20.26;53.62
44349;BME280;30068;50.986;4.564;2023-02-22T09:19:16;101176.47;;;20.29;53.72
44349;BME280;30068;50.986;4.564;2023-02-22T09:21:42;101177.13;;;20.31;53.74
44349;BME280;30068;50.986;4.564;2023-02-22T09:24:07;101175.97;;;20.33;53.70
44349;BME280;30068;50.986;4.564;2023-02-22T09:26:33;101177.84;;;20.33;53.45
44349;BME280;30068;50.986;4.564;2023-02-22T09:28:58;101174.13;;;20.26;53.71
44349;BME280;30068;50.986;4.564;2023-02-22T09:31:24;101175.16;;;20.25;53.72
44349;BME280;30068;50.986;4.564;2023-02-22T09:33:49;101181.03;;;20.28;53.52
44349;BME280;30068;50.986;4.564;2023-02-22T09:36:14;101171.72;;;20.31;53.25
44349;BME280;30068;50.986;4.564;2023-02-22T09:38:39;101182.38;;;20.32;53.32
44349;BME280;30068;50.986;4.564;2023-02-22T09:41:10;101182.22;;;20.34;53.75
44349;BME280;30068;50.986;4.564;2023-02-22T09:43:55;101182.03;;;20.35;53.67
44349;BME280;30068;50.986;4.564;2023-02-22T09:51:17;101182.53;;;20.39;53.56
44349;BME280;30068;50.986;4.564;2023-02-22T09:53:44;101185.41;;;20.37;53.56
44349;BME280;30068;50.986;4.564;2023-02-22T09:56:11;101183.91;;;20.35;53.68
44349;BME280;30068;50.986;4.564;2023-02-22T09:58:39;101177.84;;;20.33;53.86
44349;BME280;30068;50.986;4.564;2023-02-22T10:01:17;101182.03;;;20.35;53.42
44349;BME280;30068;50.986;4.564;2023-02-22T10:06:10;101179.81;;;20.39;53.73
44349;BME280;30068;50.986;4.564;2023-02-22T10:08:36;101175.25;;;20.39;53.76
44349;BME280;30068;50.986;4.564;2023-02-22T10:13:31;101168.59;;;20.42;53.72
44349;BME280;30068;50.986;4.564;2023-02-22T10:26:51;101176.28;;;20.38;53.84
44349;BME280;30068;50.986;4.564;2023-02-22T10:31:45;101170.13;;;20.44;53.60
44349;BME280;30068;50.986;4.564;2023-02-22T10:34:14;101169.94;;;20.46;53.67
44349;BME280;30068;50.986;4.564;2023-02-22T10:36:41;101170.56;;;20.48;53.76
44349;BME280;30068;50.986;4.564;2023-02-22T10:39:22;101173.28;;;20.48;53.66
44349;BME280;30068;50.986;4.564;2023-02-22T10:41:51;101166.84;;;20.49;53.52
44349;BME280;30068;50.986;4.564;2023-02-22T10:44:19;101168.53;;;20.50;53.90
44349;BME280;30068;50.986;4.564;2023-02-22T10:46:44;101177.34;;;20.52;53.93
44349;BME280;30068;50.986;4.564;2023-02-22T10:49:11;101182.75;;;20.52;53.85
44349;BME280;30068;50.986;4.564;2023-02-22T10:51:41;101168.19;;;20.53;53.96
44349;BME280;30068;50.986;4.564;2023-02-22T10:56:31;101170.69;;;20.55;54.04
44349;BME280;30068;50.986;4.564;2023-02-22T10:58:57;101160.06;;;20.53;53.64
44349;BME280;30068;50.986;4.564;2023-02-22T11:04:12;101159.84;;;20.55;53.83
44349;BME280;30068;50.986;4.564;2023-02-22T11:06:39;101166.13;;;20.55;53.78
44349;BME280;30068;50.986;4.564;2023-02-22T11:09:06;101166.78;;;20.57;53.53
44349;BME280;30068;50.986;4.564;2023-02-22T11:11:34;101161.19;;;20.59;53.73
44349;BME280;30068;50.986;4.564;2023-02-22T11:14:00;101156.59;;;20.59;53.64
44349;BME280;30068;50.986;4.564;2023-02-22T11:18:58;101163.72;;;20.60;53.73
44349;BME280;30068;50.986;4.564;2023-02-22T11:21:24;101162.66;;;20.61;53.73
44349;BME280;30068;50.986;4.564;2023-02-22T11:23:50;101160.63;;;20.63;53.54
44349;BME280;30068;50.986;4.564;2023-02-22T11:26:25;101157.91;;;20.63;53.63
44349;BME280;30068;50.986;4.564;2023-02-22T11:28:50;101159.44;;;20.66;53.83
44349;BME280;30068;50.986;4.564;2023-02-22T11:31:21;101160.25;;;20.66;53.76
44349;BME280;30068;50.986;4.564;2023-02-22T11:33:48;101158.41;;;20.67;53.58
44349;BME280;30068;50.986;4.564;2023-02-22T11:36:17;101158.19;;;20.68;53.53
44349;BME280;30068;50.986;4.564;2023-02-22T11:38:53;101148.41;;;20.67;53.41
44349;BME280;30068;50.986;4.564;2023-02-22T11:41:26;101152.78;;;20.68;53.50
44349;BME280;30068;50.986;4.564;2023-02-22T11:43:52;101158.19;;;20.68;53.50
44349;BME280;30068;50.986;4.564;2023-02-22T11:49:08;101153.44;;;20.70;53.49
44349;BME280;30068;50.986;4.564;2023-02-22T11:56:54;101149.69;;;20.71;53.19
44349;BME280;30068;50.986;4.564;2023-02-22T11:59:35;101152.41;;;20.71;53.47
44349;BME280;30068;50.986;4.564;2023-02-22T12:02:04;101147.00;;;20.71;53.48
44349;BME280;30068;50.986;4.564;2023-02-22T12:09:45;101142.22;;;20.73;53.14
44349;BME280;30068;50.986;4.564;2023-02-22T12:14:49;101146.63;;;20.74;52.87
44349;BME280;30068;50.986;4.564;2023-02-22T12:19:52;101142.22;;;20.73;53.26
44349;BME280;30068;50.986;4.564;2023-02-22T12:22:24;101143.91;;;20.74;53.06
44349;BME280;30068;50.986;4.564;2023-02-22T12:24:57;101141.22;;;20.74;52.73
44349;BME280;30068;50.986;4.564;2023-02-22T12:27:30;101138.50;;;20.74;53.03
44349;BME280;30068;50.986;4.564;2023-02-22T12:29:59;101138.50;;;20.74;53.21
44349;BME280;30068;50.986;4.564;2023-02-22T12:34:56;101142.88;;;20.75;53.16
44349;BME280;30068;50.986;4.564;2023-02-22T12:42:46;101135.56;;;20.76;53.19
44349;BME280;30068;50.986;4.564;2023-02-22T12:45:47;101139.13;;;19.70;49.70
44349;BME280;30068;50.986;4.564;2023-02-22T12:50:31;101143.34;;;20.41;50.75
44349;BME280;30068;50.986;4.564;2023-02-22T12:53:00;101144.22;;;20.42;50.92
44349;BME280;30068;50.986;4.564;2023-02-22T12:55:32;101149.09;;;20.46;51.04
44349;BME280;30068;50.986;4.564;2023-02-22T12:58:12;101145.53;;;20.46;51.00
44349;BME280;30068;50.986;4.564;2023-02-22T13:01:26;101150.22;;;20.52;51.53
44349;BME280;30068;50.986;4.564;2023-02-22T13:03:36;101151.91;;;20.53;51.66
44349;BME280;30068;50.986;4.564;2023-02-22T13:08:35;101157.97;;;20.55;51.82
44349;BME280;30068;50.986;4.564;2023-02-22T13:18:48;101143.22;;;20.58;52.15
44349;BME280;30068;50.986;4.564;2023-02-22T13:24:03;101152.38;;;20.57;52.24
44349;BME280;30068;50.986;4.564;2023-02-22T13:29:21;101149.09;;;20.61;52.55
44349;BME280;30068;50.986;4.564;2023-02-22T13:37:05;101152.19;;;20.58;52.62
44349;BME280;30068;50.986;4.564;2023-02-22T13:52:04;101165.16;;;20.48;53.24
44349;BME280;30068;50.986;4.564;2023-02-22T13:54:44;101164.81;;;20.51;53.03
44349;BME280;30068;50.986;4.564;2023-02-22T13:57:21;101168.91;;;20.47;53.21
44349;BME280;30068;50.986;4.564;2023-02-22T14:00:17;101164.13;;;20.49;52.90
44349;BME280;30068;50.986;4.564;2023-02-22T14:08:02;101171.19;;;20.58;52.35
44349;BME280;30068;50.986;4.564;2023-02-22T14:10:43;101170.00;;;20.61;52.74
44349;BME280;30068;50.986;4.564;2023-02-22T14:13:09;101177.72;;;20.64;52.56
44349;BME280;30068;50.986;4.564;2023-02-22T14:15:35;101175.03;;;20.64;52.21
44349;BME280;30068;50.986;4.564;2023-02-22T14:20:35;101180.09;;;20.67;52.29
44349;BME280;30068;50.986;4.564;2023-02-22T14:25:45;101183.28;;;20.70;52.18
44349;BME280;30068;50.986;4.564;2023-02-22T14:31:11;101183.94;;;20.72;52.19
44349;BME280;30068;50.986;4.564;2023-02-22T14:33:51;101181.91;;;20.74;51.75
44349;BME280;30068;50.986;4.564;2023-02-22T14:36:17;101178.13;;;20.75;51.79
44349;BME280;30068;50.986;4.564;2023-02-22T14:38:44;101183.38;;;20.77;51.88
44349;BME280;30068;50.986;4.564;2023-02-22T14:41:10;101175.06;;;20.78;51.92
44349;BME280;30068;50.986;4.564;2023-02-22T14:43:36;101177.78;;;20.78;52.04
44349;BME280;30068;50.986;4.564;2023-02-22T14:46:03;101176.75;;;20.79;51.96
44349;BME280;30068;50.986;4.564;2023-02-22T14:48:39;101181.16;;;20.80;52.13
44349;BME280;30068;50.986;4.564;2023-02-22T14:51:16;101175.72;;;20.80;52.04
44349;BME280;30068;50.986;4.564;2023-02-22T14:53:44;101177.38;;;20.81;52.11
44349;BME280;30068;50.986;4.564;2023-02-22T14:56:15;101188.25;;;20.81;52.31
44349;BME280;30068;50.986;4.564;2023-02-22T14:58:53;101179.06;;;20.82;51.96
44349;BME280;30068;50.986;4.564;2023-02-22T15:01:27;101182.47;;;20.84;51.91
44349;BME280;30068;50.986;4.564;2023-02-22T15:03:57;101187.88;;;20.84;51.94
44349;BME280;30068;50.986;4.564;2023-02-22T15:06:24;101183.47;;;20.83;51.95
44349;BME280;30068;50.986;4.564;2023-02-22T15:11:34;101187.72;;;20.86;51.99
44349;BME280;30068;50.986;4.564;2023-02-22T15:14:00;101191.91;;;20.88;52.34
44349;BME280;30068;50.986;4.564;2023-02-22T15:16:30;101181.25;;;20.87;52.13
44349;BME280;30068;50.986;4.564;2023-02-22T15:18:58;101180.41;;;20.86;52.25
44349;BME280;30068;50.986;4.564;2023-02-22T15:21:26;101182.28;;;20.86;52.03
44349;BME280;30068;50.986;4.564;2023-02-22T15:26:30;101188.56;;;20.86;52.29
44349;BME280;30068;50.986;4.564;2023-02-22T15:28:59;101184.81;;;20.87;52.22